Altair — 9LC2000 — position and weather

sailwx.info

Track history (hours):
 
Tides and Currents Weather Stations Pressure Air Temp Water Temp Dewpoint Dewpoint Depression Visibility Wind Speed Wind Dir Waves Ship Positions

Altair

Last reported at 2017-Jan-13 00:26 UTC. Time now 2017-Jan-17 09:01 UTC.
Position N 45°17' E 036°28'.

Length 108 m; draft 3.7 m.

Type: Cargo ship. MMSI: 667021000.

Date/timePositionNaut miles runAvg speedWind from/ knotsBaromVisibWave heightAir tempDewpointWater temp
2017-Jan-13 00:26N 45°17' E 036°28'6 7.4
2017-Jan-12 23:33N 45°20' E 036°36'7 6.7
2017-Jan-12 22:34N 45°26' E 036°41'5 4.8
2017-Jan-12 21:33N 45°31' E 036°41'7 6.9
2017-Jan-12 20:33N 45°37' E 036°45'90 6.2
2017-Jan-12 06:04N 46°45' E 038°10'2 3.8
2017-Jan-12 05:28N 46°45' E 038°13'0 0.0
2017-Jan-12 04:31N 46°45' E 038°13'0 0.0
2017-Jan-12 03:28N 46°45' E 038°13'0 0.1
2017-Jan-12 02:28N 46°45' E 038°13'1 0.6
2017-Jan-12 01:33N 46°45' E 038°14'2 2.2
2017-Jan-12 00:29N 46°44' E 038°17'0 0.0
2017-Jan-11 23:29N 46°44' E 038°17'0 0.0
2017-Jan-11 22:11N 46°44' E 038°17'0 0.0
2017-Jan-11 20:17N 46°44' E 038°17'0 0.0
2017-Jan-11 19:29N 46°44' E 038°17'0 0.0
2017-Jan-11 18:14N 46°44' E 038°17'0 0.0
2017-Jan-11 16:08N 46°44' E 038°17'0 0.0
2017-Jan-11 13:26N 46°44' E 038°17'0 0.0
2017-Jan-11 12:32N 46°44' E 038°17'0 0.0
2017-Jan-11 10:26N 46°44' E 038°17'0 0.0
2017-Jan-11 07:11N 46°44' E 038°17'0 0.0
2017-Jan-11 06:29N 46°44' E 038°17'0 0.0
2017-Jan-11 05:29N 46°44' E 038°17'0 0.0
2017-Jan-11 04:23N 46°44' E 038°17'0 0.0
2017-Jan-11 03:29N 46°44' E 038°17'0 0.0
2017-Jan-11 02:23N 46°44' E 038°17'0 0.0
2017-Jan-11 01:29N 46°44' E 038°17'0 0.0
2017-Jan-11 00:17N 46°44' E 038°17'0 0.0
2017-Jan-10 23:29N 46°44' E 038°17'0 0.0
2017-Jan-10 22:29N 46°44' E 038°17'0 0.0
2017-Jan-10 21:29N 46°44' E 038°17'0 0.0
2017-Jan-10 20:23N 46°44' E 038°17'0 0.0
2017-Jan-10 19:29N 46°44' E 038°17'0 0.0
2017-Jan-10 18:29N 46°44' E 038°17'0 0.0
2017-Jan-10 17:11N 46°44' E 038°17'0 0.0
2017-Jan-10 16:32N 46°44' E 038°17'0 0.0
2017-Jan-10 14:32N 46°44' E 038°17'0 0.0
2017-Jan-10 13:29N 46°44' E 038°17'0 0.0
2017-Jan-10 11:29N 46°44' E 038°17'0 0.0
2017-Jan-10 10:23N 46°44' E 038°17'0 0.0
2017-Jan-10 08:23N 46°44' E 038°17'0 0.0
2017-Jan-10 07:29N 46°44' E 038°17'0 0.0
2017-Jan-10 06:29N 46°44' E 038°17'0 0.0
2017-Jan-10 05:05N 46°44' E 038°17'0 0.0
2017-Jan-10 04:29N 46°44' E 038°17'0 0.0
2017-Jan-10 03:14N 46°44' E 038°17'0 0.0
2017-Jan-10 02:29N 46°44' E 038°17'0 0.0
2017-Jan-10 01:29N 46°44' E 038°17'0 0.0
2017-Jan-10 00:29N 46°44' E 038°17'0 0.0
2017-Jan-09 23:32N 46°44' E 038°17'0 0.0
2017-Jan-09 22:32N 46°44' E 038°17'0 0.0
2017-Jan-09 20:14N 46°44' E 038°17'0 0.0
2017-Jan-09 19:29N 46°44' E 038°17'0 0.0
2017-Jan-09 18:26N 46°44' E 038°17'0 0.1
2017-Jan-09 16:05N 46°44' E 038°16'2 3.3
2017-Jan-09 15:24N 46°45' E 038°14'98 2.0
2017-Jan-07 14:27N 45°30' E 036°45'7 8.1
2017-Jan-07 13:33N 45°23' E 036°41'8 8.0
2017-Jan-07 12:33N 45°19' E 036°31'7 6.9
2017-Jan-07 11:33N 45°12' E 036°29'1 1.0
2017-Jan-07 10:33N 45°11' E 036°29'0 0.0
2017-Jan-07 09:21N 45°11' E 036°29'  
Track history (hours):
 
Tides and Currents Weather Stations Pressure Air Temp Water Temp Dewpoint Dewpoint Depression Visibility Wind Speed Wind Dir Waves Ship Positions

Altair

Last reported at 2017-Jan-13 00:26 UTC. Time now 2017-Jan-17 09:01 UTC.
Position N 45°17' E 036°28'.

Length 108 m; draft 3.7 m.

Type: Cargo ship. MMSI: 667021000.

Date/timePositionNaut miles runAvg speedWind from/ knotsBaromVisibWave heightAir tempDewpointWater temp
2017-Jan-13 00:26N 45°17' E 036°28'6 7.4
2017-Jan-12 23:33N 45°20' E 036°36'7 6.7
2017-Jan-12 22:34N 45°26' E 036°41'5 4.8
2017-Jan-12 21:33N 45°31' E 036°41'7 6.9
2017-Jan-12 20:33N 45°37' E 036°45'90 6.2
2017-Jan-12 06:04N 46°45' E 038°10'2 3.8
2017-Jan-12 05:28N 46°45' E 038°13'0 0.0
2017-Jan-12 04:31N 46°45' E 038°13'0 0.0
2017-Jan-12 03:28N 46°45' E 038°13'0 0.1
2017-Jan-12 02:28N 46°45' E 038°13'1 0.6
2017-Jan-12 01:33N 46°45' E 038°14'2 2.2
2017-Jan-12 00:29N 46°44' E 038°17'0 0.0
2017-Jan-11 23:29N 46°44' E 038°17'0 0.0
2017-Jan-11 22:11N 46°44' E 038°17'0 0.0
2017-Jan-11 20:17N 46°44' E 038°17'0 0.0
2017-Jan-11 19:29N 46°44' E 038°17'0 0.0
2017-Jan-11 18:14N 46°44' E 038°17'0 0.0
2017-Jan-11 16:08N 46°44' E 038°17'0 0.0
2017-Jan-11 13:26N 46°44' E 038°17'0 0.0
2017-Jan-11 12:32N 46°44' E 038°17'0 0.0
2017-Jan-11 10:26N 46°44' E 038°17'0 0.0
2017-Jan-11 07:11N 46°44' E 038°17'0 0.0
2017-Jan-11 06:29N 46°44' E 038°17'0 0.0
2017-Jan-11 05:29N 46°44' E 038°17'0 0.0
2017-Jan-11 04:23N 46°44' E 038°17'0 0.0
2017-Jan-11 03:29N 46°44' E 038°17'0 0.0
2017-Jan-11 02:23N 46°44' E 038°17'0 0.0
2017-Jan-11 01:29N 46°44' E 038°17'0 0.0
2017-Jan-11 00:17N 46°44' E 038°17'0 0.0
2017-Jan-10 23:29N 46°44' E 038°17'0 0.0
2017-Jan-10 22:29N 46°44' E 038°17'0 0.0
2017-Jan-10 21:29N 46°44' E 038°17'0 0.0
2017-Jan-10 20:23N 46°44' E 038°17'0 0.0
2017-Jan-10 19:29N 46°44' E 038°17'0 0.0
2017-Jan-10 18:29N 46°44' E 038°17'0 0.0
2017-Jan-10 17:11N 46°44' E 038°17'0 0.0
2017-Jan-10 16:32N 46°44' E 038°17'0 0.0
2017-Jan-10 14:32N 46°44' E 038°17'0 0.0
2017-Jan-10 13:29N 46°44' E 038°17'0 0.0
2017-Jan-10 11:29N 46°44' E 038°17'0 0.0
2017-Jan-10 10:23N 46°44' E 038°17'0 0.0
2017-Jan-10 08:23N 46°44' E 038°17'0 0.0
2017-Jan-10 07:29N 46°44' E 038°17'0 0.0
2017-Jan-10 06:29N 46°44' E 038°17'0 0.0
2017-Jan-10 05:05N 46°44' E 038°17'0 0.0
2017-Jan-10 04:29N 46°44' E 038°17'0 0.0
2017-Jan-10 03:14N 46°44' E 038°17'0 0.0
2017-Jan-10 02:29N 46°44' E 038°17'0 0.0
2017-Jan-10 01:29N 46°44' E 038°17'0 0.0
2017-Jan-10 00:29N 46°44' E 038°17'0 0.0
2017-Jan-09 23:32N 46°44' E 038°17'0 0.0
2017-Jan-09 22:32N 46°44' E 038°17'0 0.0
2017-Jan-09 20:14N 46°44' E 038°17'0 0.0
2017-Jan-09 19:29N 46°44' E 038°17'0 0.0
2017-Jan-09 18:26N 46°44' E 038°17'0 0.1
2017-Jan-09 16:05N 46°44' E 038°16'2 3.3
2017-Jan-09 15:24N 46°45' E 038°14'98 2.0
2017-Jan-07 14:27N 45°30' E 036°45'7 8.1
2017-Jan-07 13:33N 45°23' E 036°41'8 8.0
2017-Jan-07 12:33N 45°19' E 036°31'7 6.9
2017-Jan-07 11:33N 45°12' E 036°29'1 1.0
2017-Jan-07 10:33N 45°11' E 036°29'0 0.0
2017-Jan-07 09:21N 45°11' E 036°29'  

Dump ship's entire track history